sensor_id;sensor_type;location;lat;lon;timestamp;pressure;altitude;pressure_sealevel;temperature;humidity
72118;BME280;59992;47.490;8.736;2023-04-20T00:02:17;96432.87;;;4.66;92.04
72118;BME280;59992;47.490;8.736;2023-04-20T00:05:08;96431.29;;;4.66;92.17
72118;BME280;59992;47.490;8.736;2023-04-20T00:07:59;96425.55;;;4.67;91.88
72118;BME280;59992;47.490;8.736;2023-04-20T00:10:50;96418.20;;;4.67;91.99
72118;BME280;59992;47.490;8.736;2023-04-20T00:13:40;96420.44;;;4.68;92.04
72118;BME280;59992;47.490;8.736;2023-04-20T00:16:31;96415.04;;;4.69;91.64
72118;BME280;59992;47.490;8.736;2023-04-20T00:19:21;96408.17;;;4.67;92.13
72118;BME280;59992;47.490;8.736;2023-04-20T00:22:11;96402.37;;;4.69;91.99
72118;BME280;59992;47.490;8.736;2023-04-20T00:25:02;96395.33;;;4.69;92.19
72118;BME280;59992;47.490;8.736;2023-04-20T00:27:52;96388.11;;;4.69;92.04
72118;BME280;59992;47.490;8.736;2023-04-20T00:30:42;96384.24;;;4.70;92.28
72118;BME280;59992;47.490;8.736;2023-04-20T00:33:32;96382.14;;;4.70;92.61
72118;BME280;59992;47.490;8.736;2023-04-20T00:36:23;96384.30;;;4.69;92.42
72118;BME280;59992;47.490;8.736;2023-04-20T00:39:14;96380.00;;;4.68;92.37
72118;BME280;59992;47.490;8.736;2023-04-20T00:42:05;96372.30;;;4.69;92.35
72118;BME280;59992;47.490;8.736;2023-04-20T00:44:56;96362.60;;;4.70;92.52
72118;BME280;59992;47.490;8.736;2023-04-20T00:47:47;96352.66;;;4.71;92.53
72118;BME280;59992;47.490;8.736;2023-04-20T00:50:38;96349.23;;;4.70;92.43
72118;BME280;59992;47.490;8.736;2023-04-20T00:53:29;96343.77;;;4.71;92.47
72118;BME280;59992;47.490;8.736;2023-04-20T00:56:19;96343.74;;;4.72;92.49
72118;BME280;59992;47.490;8.736;2023-04-20T00:59:10;96338.30;;;4.73;93.12
72118;BME280;59992;47.490;8.736;2023-04-20T01:02:01;96336.14;;;4.74;92.85
72118;BME280;59992;47.490;8.736;2023-04-20T01:04:51;96331.14;;;4.72;92.76
72118;BME280;59992;47.490;8.736;2023-04-20T01:07:41;96326.84;;;4.71;92.59
72118;BME280;59992;47.490;8.736;2023-04-20T01:10:32;96320.95;;;4.70;92.61
72118;BME280;59992;47.490;8.736;2023-04-20T01:13:22;96316.75;;;4.70;92.53
72118;BME280;59992;47.490;8.736;2023-04-20T01:16:12;96309.00;;;4.70;92.41
72118;BME280;59992;47.490;8.736;2023-04-20T01:19:03;96304.28;;;4.69;92.64
72118;BME280;59992;47.490;8.736;2023-04-20T01:21:53;96305.26;;;4.70;92.72
72118;BME280;59992;47.490;8.736;2023-04-20T01:24:43;96302.27;;;4.70;93.94
72118;BME280;59992;47.490;8.736;2023-04-20T01:27:33;96299.27;;;4.72;97.10
72118;BME280;59992;47.490;8.736;2023-04-20T01:30:24;96295.48;;;4.76;96.47
72118;BME280;59992;47.490;8.736;2023-04-20T01:33:14;96291.79;;;4.78;95.25
72118;BME280;59992;47.490;8.736;2023-04-20T01:36:06;96287.45;;;4.78;94.14
72118;BME280;59992;47.490;8.736;2023-04-20T01:38:57;96279.48;;;4.78;93.81
72118;BME280;59992;47.490;8.736;2023-04-20T01:41:47;96277.48;;;4.76;93.49
72118;BME280;59992;47.490;8.736;2023-04-20T01:44:37;96277.27;;;4.74;93.64
72118;BME280;59992;47.490;8.736;2023-04-20T01:47:28;96272.58;;;4.73;94.13
72118;BME280;59992;47.490;8.736;2023-04-20T01:50:18;96266.32;;;4.74;93.93
72118;BME280;59992;47.490;8.736;2023-04-20T01:53:08;96265.23;;;4.75;94.48
72118;BME280;59992;47.490;8.736;2023-04-20T01:56:01;96265.56;;;4.79;95.70
72118;BME280;59992;47.490;8.736;2023-04-20T01:58:51;96265.95;;;4.82;94.32
72118;BME280;59992;47.490;8.736;2023-04-20T02:01:42;96256.96;;;4.83;93.51
72118;BME280;59992;47.490;8.736;2023-04-20T02:04:32;96257.39;;;4.84;93.37
72118;BME280;59992;47.490;8.736;2023-04-20T02:07:22;96253.73;;;4.84;93.28
72118;BME280;59992;47.490;8.736;2023-04-20T02:10:12;96248.89;;;4.86;92.94
72118;BME280;59992;47.490;8.736;2023-04-20T02:13:03;96249.81;;;4.86;92.80
72118;BME280;59992;47.490;8.736;2023-04-20T02:15:53;96251.04;;;4.87;92.61
72118;BME280;59992;47.490;8.736;2023-04-20T02:18:44;96253.79;;;4.87;92.83
72118;BME280;59992;47.490;8.736;2023-04-20T02:21:34;96251.03;;;4.87;92.93
72118;BME280;59992;47.490;8.736;2023-04-20T02:24:25;96238.27;;;4.87;93.50
72118;BME280;59992;47.490;8.736;2023-04-20T02:27:15;96228.59;;;4.87;92.85
72118;BME280;59992;47.490;8.736;2023-04-20T02:30:07;96220.42;;;4.85;92.65
72118;BME280;59992;47.490;8.736;2023-04-20T02:32:58;96217.08;;;4.83;92.54
72118;BME280;59992;47.490;8.736;2023-04-20T02:35:48;96212.88;;;4.83;92.64
72118;BME280;59992;47.490;8.736;2023-04-20T02:38:38;96208.58;;;4.82;92.72
72118;BME280;59992;47.490;8.736;2023-04-20T02:41:28;96205.63;;;4.81;92.61
72118;BME280;59992;47.490;8.736;2023-04-20T02:44:18;96206.83;;;4.81;92.74
72118;BME280;59992;47.490;8.736;2023-04-20T02:47:08;96205.48;;;4.79;92.83
72118;BME280;59992;47.490;8.736;2023-04-20T02:49:59;96205.45;;;4.78;92.64
72118;BME280;59992;47.490;8.736;2023-04-20T02:52:49;96200.45;;;4.76;92.74
72118;BME280;59992;47.490;8.736;2023-04-20T02:55:39;96199.38;;;4.76;92.78
72118;BME280;59992;47.490;8.736;2023-04-20T02:58:31;96194.47;;;4.75;92.64
72118;BME280;59992;47.490;8.736;2023-04-20T03:01:21;96190.20;;;4.74;93.00
72118;BME280;59992;47.490;8.736;2023-04-20T03:04:11;96191.55;;;4.75;92.75
72118;BME280;59992;47.490;8.736;2023-04-20T03:07:02;96184.19;;;4.77;92.99
72118;BME280;59992;47.490;8.736;2023-04-20T03:09:52;96180.17;;;4.78;93.22
72118;BME280;59992;47.490;8.736;2023-04-20T03:12:42;96181.73;;;4.81;93.02
72118;BME280;59992;47.490;8.736;2023-04-20T03:15:32;96183.66;;;4.82;94.25
72118;BME280;59992;47.490;8.736;2023-04-20T03:18:23;96181.17;;;4.82;94.14
72118;BME280;59992;47.490;8.736;2023-04-20T03:21:13;96175.59;;;4.83;93.72
72118;BME280;59992;47.490;8.736;2023-04-20T03:24:05;96178.10;;;4.84;93.53
72118;BME280;59992;47.490;8.736;2023-04-20T03:26:55;96174.83;;;4.83;93.23
72118;BME280;59992;47.490;8.736;2023-04-20T03:29:45;96176.02;;;4.83;93.10
72118;BME280;59992;47.490;8.736;2023-04-20T03:32:36;96176.48;;;4.83;93.37
72118;BME280;59992;47.490;8.736;2023-04-20T03:35:27;96174.52;;;4.85;93.48
72118;BME280;59992;47.490;8.736;2023-04-20T03:38:16;96171.23;;;4.88;93.59
72118;BME280;59992;47.490;8.736;2023-04-20T03:41:09;96170.90;;;4.90;93.65
72118;BME280;59992;47.490;8.736;2023-04-20T03:43:59;96171.63;;;4.92;93.43
72118;BME280;59992;47.490;8.736;2023-04-20T03:46:49;96177.55;;;4.94;93.56
72118;BME280;59992;47.490;8.736;2023-04-20T03:49:39;96163.62;;;4.92;93.98
72118;BME280;59992;47.490;8.736;2023-04-20T03:52:29;96168.60;;;4.96;93.47
72118;BME280;59992;47.490;8.736;2023-04-20T03:55:20;96159.27;;;4.92;93.58
72118;BME280;59992;47.490;8.736;2023-04-20T03:58:10;96160.59;;;4.96;93.57
72118;BME280;59992;47.490;8.736;2023-04-20T04:01:05;96156.14;;;4.98;93.78
72118;BME280;59992;47.490;8.736;2023-04-20T04:03:57;96149.81;;;4.98;93.47
72118;BME280;59992;47.490;8.736;2023-04-20T04:06:46;96149.35;;;4.97;93.57
72118;BME280;59992;47.490;8.736;2023-04-20T04:09:37;96155.50;;;4.97;93.29
72118;BME280;59992;47.490;8.736;2023-04-20T04:12:27;96152.07;;;4.98;93.43
72118;BME280;59992;47.490;8.736;2023-04-20T04:15:17;96153.23;;;4.96;93.65
72118;BME280;59992;47.490;8.736;2023-04-20T04:18:08;96159.02;;;4.94;93.44
72118;BME280;59992;47.490;8.736;2023-04-20T04:20:58;96157.05;;;4.93;93.34
72118;BME280;59992;47.490;8.736;2023-04-20T04:23:48;96156.52;;;4.95;93.35
72118;BME280;59992;47.490;8.736;2023-04-20T04:26:39;96155.80;;;4.97;93.72
72118;BME280;59992;47.490;8.736;2023-04-20T04:29:29;96153.70;;;4.97;93.51
72118;BME280;59992;47.490;8.736;2023-04-20T04:32:23;96151.35;;;4.96;93.57
72118;BME280;59992;47.490;8.736;2023-04-20T04:35:14;96143.93;;;4.96;93.30
72118;BME280;59992;47.490;8.736;2023-04-20T04:38:04;96144.73;;;4.95;93.75
72118;BME280;59992;47.490;8.736;2023-04-20T04:40:54;96149.03;;;4.94;93.69
72118;BME280;59992;47.490;8.736;2023-04-20T04:43:45;96151.02;;;4.95;93.69
72118;BME280;59992;47.490;8.736;2023-04-20T04:46:35;96142.48;;;4.93;93.08
72118;BME280;59992;47.490;8.736;2023-04-20T04:49:26;96140.08;;;4.88;93.01
72118;BME280;59992;47.490;8.736;2023-04-20T04:52:17;96144.79;;;4.87;93.80
72118;BME280;59992;47.490;8.736;2023-04-20T04:55:08;96147.77;;;4.89;93.95
72118;BME280;59992;47.490;8.736;2023-04-20T04:57:59;96147.29;;;4.88;93.34
72118;BME280;59992;47.490;8.736;2023-04-20T05:00:49;96140.67;;;4.84;93.40
72118;BME280;59992;47.490;8.736;2023-04-20T05:03:40;96131.04;;;4.84;93.56
72118;BME280;59992;47.490;8.736;2023-04-20T05:06:30;96130.06;;;4.83;93.48
72118;BME280;59992;47.490;8.736;2023-04-20T05:09:21;96137.76;;;4.85;93.47
72118;BME280;59992;47.490;8.736;2023-04-20T05:12:12;96141.10;;;4.86;93.77
72118;BME280;59992;47.490;8.736;2023-04-20T05:15:02;96134.60;;;4.87;93.76
72118;BME280;59992;47.490;8.736;2023-04-20T05:17:53;96133.89;;;4.89;93.92
72118;BME280;59992;47.490;8.736;2023-04-20T05:20:43;96136.85;;;4.90;94.02
72118;BME280;59992;47.490;8.736;2023-04-20T05:23:34;96138.07;;;4.91;93.80
72118;BME280;59992;47.490;8.736;2023-04-20T05:26:29;96139.29;;;4.89;93.86
72118;BME280;59992;47.490;8.736;2023-04-20T05:29:22;96136.67;;;4.89;94.10
72118;BME280;59992;47.490;8.736;2023-04-20T05:32:12;96136.12;;;4.88;94.46
72118;BME280;59992;47.490;8.736;2023-04-20T05:35:03;96134.31;;;4.88;94.37
72118;BME280;59992;47.490;8.736;2023-04-20T05:37:53;96132.84;;;4.87;93.81
72118;BME280;59992;47.490;8.736;2023-04-20T05:40:44;96133.71;;;4.88;94.36
72118;BME280;59992;47.490;8.736;2023-04-20T05:43:34;96132.37;;;4.88;94.39
72118;BME280;59992;47.490;8.736;2023-04-20T05:46:24;96131.92;;;4.88;94.33
72118;BME280;59992;47.490;8.736;2023-04-20T05:49:15;96130.37;;;4.89;94.27
72118;BME280;59992;47.490;8.736;2023-04-20T05:52:05;96139.33;;;4.90;94.53
72118;BME280;59992;47.490;8.736;2023-04-20T05:54:56;96140.60;;;4.92;94.11
72118;BME280;59992;47.490;8.736;2023-04-20T05:57:47;96133.26;;;4.93;94.39
72118;BME280;59992;47.490;8.736;2023-04-20T06:00:38;96132.73;;;4.96;94.54
72118;BME280;59992;47.490;8.736;2023-04-20T06:03:29;96136.27;;;4.96;94.54
72118;BME280;59992;47.490;8.736;2023-04-20T06:06:19;96138.74;;;4.93;94.48
72118;BME280;59992;47.490;8.736;2023-04-20T06:09:10;96148.11;;;4.91;94.23
72118;BME280;59992;47.490;8.736;2023-04-20T06:12:00;96153.93;;;4.89;94.86
72118;BME280;59992;47.490;8.736;2023-04-20T06:14:52;96152.12;;;4.89;95.02
72118;BME280;59992;47.490;8.736;2023-04-20T06:17:42;96148.36;;;4.86;94.25
72118;BME280;59992;47.490;8.736;2023-04-20T06:20:33;96143.19;;;4.78;93.48
72118;BME280;59992;47.490;8.736;2023-04-20T06:23:23;96151.70;;;4.74;92.77
72118;BME280;59992;47.490;8.736;2023-04-20T06:26:14;96149.02;;;4.72;93.53
72118;BME280;59992;47.490;8.736;2023-04-20T06:29:05;96136.84;;;4.71;93.52
72118;BME280;59992;47.490;8.736;2023-04-20T06:31:55;96133.30;;;4.70;93.85
72118;BME280;59992;47.490;8.736;2023-04-20T06:34:45;96133.28;;;4.65;93.92
72118;BME280;59992;47.490;8.736;2023-04-20T06:37:36;96145.63;;;4.72;94.17
72118;BME280;59992;47.490;8.736;2023-04-20T06:40:28;96142.67;;;4.71;94.29
72118;BME280;59992;47.490;8.736;2023-04-20T06:43:18;96138.13;;;4.69;94.87
72118;BME280;59992;47.490;8.736;2023-04-20T06:46:09;96135.52;;;4.68;94.64
72118;BME280;59992;47.490;8.736;2023-04-20T06:48:59;96139.02;;;4.67;94.81
72118;BME280;59992;47.490;8.736;2023-04-20T06:51:56;96140.23;;;4.67;94.68
72118;BME280;59992;47.490;8.736;2023-04-20T06:54:46;96140.17;;;4.67;94.62
72118;BME280;59992;47.490;8.736;2023-04-20T06:57:37;96140.65;;;4.68;95.12
72118;BME280;59992;47.490;8.736;2023-04-20T07:00:27;96130.55;;;4.69;95.05
72118;BME280;59992;47.490;8.736;2023-04-20T07:03:17;96130.39;;;4.72;95.05
72118;BME280;59992;47.490;8.736;2023-04-20T07:06:08;96138.31;;;4.75;95.11
72118;BME280;59992;47.490;8.736;2023-04-20T07:08:59;96127.04;;;4.75;94.90
72118;BME280;59992;47.490;8.736;2023-04-20T07:11:49;96125.95;;;4.81;94.95
72118;BME280;59992;47.490;8.736;2023-04-20T07:14:40;96126.95;;;4.85;95.13
72118;BME280;59992;47.490;8.736;2023-04-20T07:17:31;96131.62;;;4.91;95.14
72118;BME280;59992;47.490;8.736;2023-04-20T07:20:21;96128.13;;;4.92;95.59
72118;BME280;59992;47.490;8.736;2023-04-20T07:23:12;96124.77;;;5.01;95.92
72118;BME280;59992;47.490;8.736;2023-04-20T07:26:04;96112.23;;;5.09;95.68
72118;BME280;59992;47.490;8.736;2023-04-20T07:28:57;96120.66;;;5.21;95.84
72118;BME280;59992;47.490;8.736;2023-04-20T07:31:47;96133.12;;;5.27;95.27
72118;BME280;59992;47.490;8.736;2023-04-20T07:34:40;96135.45;;;5.35;95.37
72118;BME280;59992;47.490;8.736;2023-04-20T07:37:30;96135.55;;;5.40;95.03
72118;BME280;59992;47.490;8.736;2023-04-20T07:40:20;96131.39;;;5.44;95.09
72118;BME280;59992;47.490;8.736;2023-04-20T07:43:10;96134.16;;;5.50;95.19
72118;BME280;59992;47.490;8.736;2023-04-20T07:46:00;96131.79;;;5.54;94.62
72118;BME280;59992;47.490;8.736;2023-04-20T07:48:51;96134.51;;;5.60;94.30
72118;BME280;59992;47.490;8.736;2023-04-20T07:51:41;96131.01;;;5.62;93.28
72118;BME280;59992;47.490;8.736;2023-04-20T07:54:32;96133.48;;;5.62;93.56
72118;BME280;59992;47.490;8.736;2023-04-20T07:57:22;96133.98;;;5.64;93.31
72118;BME280;59992;47.490;8.736;2023-04-20T08:00:15;96140.58;;;5.66;94.05
72118;BME280;59992;47.490;8.736;2023-04-20T08:03:06;96142.73;;;5.66;93.46
72118;BME280;59992;47.490;8.736;2023-04-20T08:05:56;96138.96;;;5.68;94.56
72118;BME280;59992;47.490;8.736;2023-04-20T08:08:46;96134.21;;;5.67;92.95
72118;BME280;59992;47.490;8.736;2023-04-20T08:11:36;96141.59;;;5.65;92.34
72118;BME280;59992;47.490;8.736;2023-04-20T08:14:27;96146.95;;;5.63;93.14
72118;BME280;59992;47.490;8.736;2023-04-20T08:17:18;96150.35;;;5.58;92.60
72118;BME280;59992;47.490;8.736;2023-04-20T08:20:09;96139.79;;;5.62;93.04
72118;BME280;59992;47.490;8.736;2023-04-20T08:23:00;96128.45;;;5.65;94.20
72118;BME280;59992;47.490;8.736;2023-04-20T08:25:50;96128.95;;;5.58;92.98
72118;BME280;59992;47.490;8.736;2023-04-20T08:28:40;96140.59;;;5.64;93.18
72118;BME280;59992;47.490;8.736;2023-04-20T08:31:32;96139.17;;;5.67;92.39
72118;BME280;59992;47.490;8.736;2023-04-20T08:34:23;96132.79;;;5.70;92.01
72118;BME280;59992;47.490;8.736;2023-04-20T08:37:13;96125.34;;;5.76;92.78
72118;BME280;59992;47.490;8.736;2023-04-20T08:40:03;96121.56;;;5.81;93.26
72118;BME280;59992;47.490;8.736;2023-04-20T08:42:54;96124.83;;;5.83;91.27
72118;BME280;59992;47.490;8.736;2023-04-20T08:45:48;96123.23;;;5.87;91.65
72118;BME280;59992;47.490;8.736;2023-04-20T08:48:41;96118.30;;;5.91;92.98
72118;BME280;59992;47.490;8.736;2023-04-20T08:51:34;96118.55;;;5.99;93.25
72118;BME280;59992;47.490;8.736;2023-04-20T08:54:24;96117.58;;;6.02;94.53
72118;BME280;59992;47.490;8.736;2023-04-20T08:57:14;96103.48;;;6.00;93.66
72118;BME280;59992;47.490;8.736;2023-04-20T09:00:07;96111.24;;;6.11;94.62
72118;BME280;59992;47.490;8.736;2023-04-20T09:02:59;96107.77;;;6.13;90.97
72118;BME280;59992;47.490;8.736;2023-04-20T09:05:50;96103.61;;;6.15;89.93
72118;BME280;59992;47.490;8.736;2023-04-20T09:08:41;96098.77;;;6.21;91.96
72118;BME280;59992;47.490;8.736;2023-04-20T09:11:32;96096.89;;;6.28;92.10
72118;BME280;59992;47.490;8.736;2023-04-20T09:14:22;96091.31;;;6.35;94.53
72118;BME280;59992;47.490;8.736;2023-04-20T09:17:12;96091.83;;;6.35;93.72
72118;BME280;59992;47.490;8.736;2023-04-20T09:20:04;96080.71;;;6.31;92.28
72118;BME280;59992;47.490;8.736;2023-04-20T09:22:54;96079.59;;;6.38;93.31
72118;BME280;59992;47.490;8.736;2023-04-20T09:25:49;96078.29;;;6.41;94.03
72118;BME280;59992;47.490;8.736;2023-04-20T09:28:40;96078.23;;;6.46;93.38
72118;BME280;59992;47.490;8.736;2023-04-20T09:31:30;96073.55;;;6.48;92.38
72118;BME280;59992;47.490;8.736;2023-04-20T09:34:22;96069.25;;;6.48;93.14
72118;BME280;59992;47.490;8.736;2023-04-20T09:37:15;96071.55;;;6.50;92.83
72118;BME280;59992;47.490;8.736;2023-04-20T09:40:08;96068.69;;;6.47;92.28
72118;BME280;59992;47.490;8.736;2023-04-20T09:43:01;96064.54;;;6.50;92.51
72118;BME280;59992;47.490;8.736;2023-04-20T09:45:55;96064.16;;;6.53;93.05
72118;BME280;59992;47.490;8.736;2023-04-20T09:48:45;96066.92;;;6.56;93.56
72118;BME280;59992;47.490;8.736;2023-04-20T09:51:38;96066.96;;;6.58;93.74
72118;BME280;59992;47.490;8.736;2023-04-20T09:54:29;96063.33;;;6.60;93.41
72118;BME280;59992;47.490;8.736;2023-04-20T09:57:19;96063.64;;;6.57;90.99
72118;BME280;59992;47.490;8.736;2023-04-20T10:00:12;96067.13;;;6.50;88.44
72118;BME280;59992;47.490;8.736;2023-04-20T10:03:03;96068.45;;;6.46;88.37
72118;BME280;59992;47.490;8.736;2023-04-20T10:05:54;96075.49;;;6.44;89.34
72118;BME280;59992;47.490;8.736;2023-04-20T10:08:45;96078.95;;;6.41;90.11
72118;BME280;59992;47.490;8.736;2023-04-20T10:11:37;96080.09;;;6.34;88.62
72118;BME280;59992;47.490;8.736;2023-04-20T10:14:28;96080.78;;;6.31;88.63
72118;BME280;59992;47.490;8.736;2023-04-20T10:17:29;96074.10;;;6.28;88.52
72118;BME280;59992;47.490;8.736;2023-04-20T10:20:22;96075.07;;;6.28;88.75
72118;BME280;59992;47.490;8.736;2023-04-20T10:23:13;96068.19;;;6.19;87.36
72118;BME280;59992;47.490;8.736;2023-04-20T10:26:04;96062.30;;;6.21;88.96
72118;BME280;59992;47.490;8.736;2023-04-20T10:28:55;96059.92;;;6.22;88.65
72118;BME280;59992;47.490;8.736;2023-04-20T10:31:45;96057.86;;;6.25;87.75
72118;BME280;59992;47.490;8.736;2023-04-20T10:34:36;96048.08;;;6.31;89.21
72118;BME280;59992;47.490;8.736;2023-04-20T10:37:26;96049.03;;;6.34;89.16
72118;BME280;59992;47.490;8.736;2023-04-20T10:40:16;96051.36;;;6.34;87.14
72118;BME280;59992;47.490;8.736;2023-04-20T10:43:21;96055.27;;;6.34;87.45
72118;BME280;59992;47.490;8.736;2023-04-20T10:46:19;96057.51;;;6.33;88.74
72118;BME280;59992;47.490;8.736;2023-04-20T10:49:12;96057.20;;;6.29;87.43
72118;BME280;59992;47.490;8.736;2023-04-20T10:52:02;96060.66;;;6.29;88.21
72118;BME280;59992;47.490;8.736;2023-04-20T10:54:53;96056.09;;;6.26;87.70
72118;BME280;59992;47.490;8.736;2023-04-20T10:57:47;96059.13;;;6.34;88.37
72118;BME280;59992;47.490;8.736;2023-04-20T11:00:37;96050.27;;;6.51;88.95
72118;BME280;59992;47.490;8.736;2023-04-20T11:03:29;96043.66;;;6.62;87.26
72118;BME280;59992;47.490;8.736;2023-04-20T11:06:20;96036.65;;;6.77;87.05
72118;BME280;59992;47.490;8.736;2023-04-20T11:09:19;96034.80;;;6.91;87.31
72118;BME280;59992;47.490;8.736;2023-04-20T11:12:11;96034.07;;;7.04;88.80
72118;BME280;59992;47.490;8.736;2023-04-20T11:15:04;96039.14;;;7.10;88.44
72118;BME280;59992;47.490;8.736;2023-04-20T11:17:54;96043.39;;;7.11;87.25
72118;BME280;59992;47.490;8.736;2023-04-20T11:20:54;96038.02;;;7.11;87.80
72118;BME280;59992;47.490;8.736;2023-04-20T11:23:45;96032.02;;;7.07;86.85
72118;BME280;59992;47.490;8.736;2023-04-20T11:26:37;96026.86;;;7.10;87.84
72118;BME280;59992;47.490;8.736;2023-04-20T11:29:30;96025.68;;;7.15;88.24
72118;BME280;59992;47.490;8.736;2023-04-20T11:32:20;96026.86;;;7.18;87.19
72118;BME280;59992;47.490;8.736;2023-04-20T11:35:11;96029.59;;;7.19;85.46
72118;BME280;59992;47.490;8.736;2023-04-20T11:38:01;96026.15;;;7.21;86.54
72118;BME280;59992;47.490;8.736;2023-04-20T11:40:52;96022.64;;;7.23;87.41
72118;BME280;59992;47.490;8.736;2023-04-20T11:43:42;96024.36;;;7.26;88.25
72118;BME280;59992;47.490;8.736;2023-04-20T11:46:35;96029.28;;;7.23;86.09
72118;BME280;59992;47.490;8.736;2023-04-20T11:49:26;96034.77;;;7.19;86.89
72118;BME280;59992;47.490;8.736;2023-04-20T11:52:17;96034.27;;;7.16;87.52
72118;BME280;59992;47.490;8.736;2023-04-20T11:55:09;96032.92;;;7.12;86.02
72118;BME280;59992;47.490;8.736;2023-04-20T11:58:00;96031.50;;;7.08;86.23
72118;BME280;59992;47.490;8.736;2023-04-20T12:00:51;96032.58;;;7.05;85.94
72118;BME280;59992;47.490;8.736;2023-04-20T12:03:42;96035.10;;;6.99;87.23
72118;BME280;59992;47.490;8.736;2023-04-20T12:06:32;96032.73;;;6.97;90.04
72118;BME280;59992;47.490;8.736;2023-04-20T12:09:23;96037.27;;;6.97;91.57
72118;BME280;59992;47.490;8.736;2023-04-20T12:12:13;96022.13;;;6.85;89.17
72118;BME280;59992;47.490;8.736;2023-04-20T12:15:05;96029.48;;;6.97;88.93
72118;BME280;59992;47.490;8.736;2023-04-20T12:17:56;96032.26;;;6.96;87.47
72118;BME280;59992;47.490;8.736;2023-04-20T12:20:47;96033.79;;;6.93;86.28
72118;BME280;59992;47.490;8.736;2023-04-20T12:23:38;96035.37;;;6.93;88.03
72118;BME280;59992;47.490;8.736;2023-04-20T12:26:28;96033.55;;;6.92;88.89
72118;BME280;59992;47.490;8.736;2023-04-20T12:29:19;96037.27;;;6.90;86.37
72118;BME280;59992;47.490;8.736;2023-04-20T12:32:09;96035.80;;;6.88;87.89
72118;BME280;59992;47.490;8.736;2023-04-20T12:34:59;96024.42;;;6.79;88.64
72118;BME280;59992;47.490;8.736;2023-04-20T12:37:51;96029.77;;;6.79;88.68
72118;BME280;59992;47.490;8.736;2023-04-20T12:40:41;96030.16;;;6.76;88.76
72118;BME280;59992;47.490;8.736;2023-04-20T12:43:31;96030.54;;;6.73;88.90
72118;BME280;59992;47.490;8.736;2023-04-20T12:46:22;96029.76;;;6.71;89.35
72118;BME280;59992;47.490;8.736;2023-04-20T12:49:12;96028.89;;;6.69;88.77
72118;BME280;59992;47.490;8.736;2023-04-20T12:52:03;96026.41;;;6.69;88.47
72118;BME280;59992;47.490;8.736;2023-04-20T12:54:53;96022.89;;;6.70;88.71
72118;BME280;59992;47.490;8.736;2023-04-20T12:57:44;96031.81;;;6.76;90.11
72118;BME280;59992;47.490;8.736;2023-04-20T13:00:34;96028.42;;;6.80;89.24
72118;BME280;59992;47.490;8.736;2023-04-20T13:03:25;96033.07;;;6.79;88.20
72118;BME280;59992;47.490;8.736;2023-04-20T13:06:15;96031.64;;;6.79;88.48
72118;BME280;59992;47.490;8.736;2023-04-20T13:09:06;96038.06;;;6.84;88.84
72118;BME280;59992;47.490;8.736;2023-04-20T13:11:56;96034.34;;;6.87;89.15
72118;BME280;59992;47.490;8.736;2023-04-20T13:14:47;96038.92;;;6.86;88.17
72118;BME280;59992;47.490;8.736;2023-04-20T13:17:37;96043.42;;;6.85;88.94
72118;BME280;59992;47.490;8.736;2023-04-20T13:20:27;96054.20;;;6.86;88.83
72118;BME280;59992;47.490;8.736;2023-04-20T13:23:18;96065.60;;;6.88;88.63
72118;BME280;59992;47.490;8.736;2023-04-20T13:26:08;96068.27;;;6.85;87.32
72118;BME280;59992;47.490;8.736;2023-04-20T13:28:58;96069.91;;;6.85;87.52
72118;BME280;59992;47.490;8.736;2023-04-20T13:31:49;96073.00;;;6.81;86.49
72118;BME280;59992;47.490;8.736;2023-04-20T13:34:39;96072.63;;;6.78;87.63
72118;BME280;59992;47.490;8.736;2023-04-20T13:37:29;96063.89;;;6.77;89.02
72118;BME280;59992;47.490;8.736;2023-04-20T13:40:21;96074.85;;;6.79;88.75
72118;BME280;59992;47.490;8.736;2023-04-20T13:43:12;96070.46;;;6.82;88.74
72118;BME280;59992;47.490;8.736;2023-04-20T13:46:02;96062.02;;;6.85;88.33
72118;BME280;59992;47.490;8.736;2023-04-20T13:48:52;96061.25;;;6.88;88.75
72118;BME280;59992;47.490;8.736;2023-04-20T13:51:43;96067.98;;;6.95;89.19
72118;BME280;59992;47.490;8.736;2023-04-20T13:54:33;96068.15;;;6.99;89.48
72118;BME280;59992;47.490;8.736;2023-04-20T13:57:24;96069.49;;;6.99;87.07
72118;BME280;59992;47.490;8.736;2023-04-20T14:00:15;96076.77;;;7.01;87.63
72118;BME280;59992;47.490;8.736;2023-04-20T14:03:05;96073.44;;;7.00;88.33
72118;BME280;59992;47.490;8.736;2023-04-20T14:05:58;96077.17;;;6.94;86.31
72118;BME280;59992;47.490;8.736;2023-04-20T14:08:48;96072.98;;;6.95;86.65
72118;BME280;59992;47.490;8.736;2023-04-20T14:11:39;96070.95;;;6.92;87.20
72118;BME280;59992;47.490;8.736;2023-04-20T14:14:31;96061.89;;;6.87;87.38
72118;BME280;59992;47.490;8.736;2023-04-20T14:17:22;96062.59;;;6.80;86.61
72118;BME280;59992;47.490;8.736;2023-04-20T14:20:13;96060.25;;;6.72;87.11
72118;BME280;59992;47.490;8.736;2023-04-20T14:23:03;96059.98;;;6.67;87.93
72118;BME280;59992;47.490;8.736;2023-04-20T14:25:53;96058.83;;;6.61;88.13
72118;BME280;59992;47.490;8.736;2023-04-20T14:28:48;96060.59;;;6.63;89.70
72118;BME280;59992;47.490;8.736;2023-04-20T14:31:40;96049.00;;;6.66;89.85
72118;BME280;59992;47.490;8.736;2023-04-20T14:34:30;96044.83;;;6.68;89.87
72118;BME280;59992;47.490;8.736;2023-04-20T14:37:20;96046.62;;;6.72;89.02
72118;BME280;59992;47.490;8.736;2023-04-20T14:40:15;96047.09;;;6.73;89.35
72118;BME280;59992;47.490;8.736;2023-04-20T14:43:05;96050.61;;;6.67;87.02
72118;BME280;59992;47.490;8.736;2023-04-20T14:45:55;96057.48;;;6.65;88.22
72118;BME280;59992;47.490;8.736;2023-04-20T14:48:46;96058.86;;;6.66;89.21
72118;BME280;59992;47.490;8.736;2023-04-20T14:51:37;96055.21;;;6.65;88.28
72118;BME280;59992;47.490;8.736;2023-04-20T14:54:27;96071.55;;;6.65;88.29
72118;BME280;59992;47.490;8.736;2023-04-20T14:57:18;96081.23;;;6.67;89.48
72118;BME280;59992;47.490;8.736;2023-04-20T15:00:11;96084.66;;;6.69;88.43
72118;BME280;59992;47.490;8.736;2023-04-20T15:03:02;96091.07;;;6.74;88.18
72118;BME280;59992;47.490;8.736;2023-04-20T15:05:56;96091.13;;;6.73;88.40
72118;BME280;59992;47.490;8.736;2023-04-20T15:08:46;96096.27;;;6.81;88.59
72118;BME280;59992;47.490;8.736;2023-04-20T15:11:37;96092.63;;;6.84;89.41
72118;BME280;59992;47.490;8.736;2023-04-20T15:14:28;96095.27;;;6.88;88.67
72118;BME280;59992;47.490;8.736;2023-04-20T15:17:19;96095.29;;;6.89;89.15